sensor_id;sensor_type;location;lat;lon;timestamp;pressure;altitude;pressure_sealevel;temperature;humidity
80629;BME280;69983;42.370;-71.210;2023-06-14T00:00:41;100215.77;;;24.77;24.98
80629;BME280;69983;42.370;-71.210;2023-06-14T00:02:42;100218.04;;;25.11;24.67
80629;BME280;69983;42.370;-71.210;2023-06-14T00:04:42;100218.46;;;24.37;25.05
80629;BME280;69983;42.370;-71.210;2023-06-14T00:06:42;100219.39;;;24.52;24.87
80629;BME280;69983;42.370;-71.210;2023-06-14T00:08:43;100223.00;;;24.10;24.80
80629;BME280;69983;42.370;-71.210;2023-06-14T00:10:43;100227.24;;;23.85;24.87
80629;BME280;69983;42.370;-71.210;2023-06-14T00:12:43;100233.04;;;23.92;24.80
80629;BME280;69983;42.370;-71.210;2023-06-14T00:14:44;100234.81;;;24.26;24.89
80629;BME280;69983;42.370;-71.210;2023-06-14T00:16:45;100242.95;;;24.32;24.96
80629;BME280;69983;42.370;-71.210;2023-06-14T00:18:45;100246.28;;;24.86;24.65
80629;BME280;69983;42.370;-71.210;2023-06-14T00:20:45;100253.49;;;24.95;24.68
80629;BME280;69983;42.370;-71.210;2023-06-14T00:22:45;100255.13;;;24.42;25.05
80629;BME280;69983;42.370;-71.210;2023-06-14T00:24:46;100248.64;;;25.07;24.44
80629;BME280;69983;42.370;-71.210;2023-06-14T00:26:47;100252.12;;;24.50;24.61
80629;BME280;69983;42.370;-71.210;2023-06-14T00:28:48;100249.20;;;24.39;24.65
80629;BME280;69983;42.370;-71.210;2023-06-14T00:30:48;100251.93;;;24.07;24.61
80629;BME280;69983;42.370;-71.210;2023-06-14T00:32:48;100255.90;;;23.89;24.75
80629;BME280;69983;42.370;-71.210;2023-06-14T00:34:49;100257.30;;;24.65;24.54
80629;BME280;69983;42.370;-71.210;2023-06-14T00:36:50;100252.85;;;24.53;24.61
80629;BME280;69983;42.370;-71.210;2023-06-14T00:38:51;100250.65;;;24.51;24.73
80629;BME280;69983;42.370;-71.210;2023-06-14T00:40:52;100241.10;;;24.80;24.62
80629;BME280;69983;42.370;-71.210;2023-06-14T00:42:51;100246.21;;;24.41;24.88
80629;BME280;69983;42.370;-71.210;2023-06-14T00:44:52;100252.78;;;24.69;24.35
80629;BME280;69983;42.370;-71.210;2023-06-14T00:46:52;100259.35;;;24.79;24.51
80629;BME280;69983;42.370;-71.210;2023-06-14T00:48:53;100259.32;;;23.98;24.70
80629;BME280;69983;42.370;-71.210;2023-06-14T00:50:53;100260.42;;;23.96;24.80
80629;BME280;69983;42.370;-71.210;2023-06-14T00:52:54;100261.04;;;24.12;24.72
80629;BME280;69983;42.370;-71.210;2023-06-14T00:54:55;100269.10;;;24.41;24.83
80629;BME280;69983;42.370;-71.210;2023-06-14T00:56:55;100272.58;;;24.31;24.85
80629;BME280;69983;42.370;-71.210;2023-06-14T00:58:56;100272.85;;;24.68;24.87
80629;BME280;69983;42.370;-71.210;2023-06-14T01:00:55;100273.62;;;24.87;24.82
80629;BME280;69983;42.370;-71.210;2023-06-14T01:02:56;100272.70;;;25.33;24.77
80629;BME280;69983;42.370;-71.210;2023-06-14T01:04:57;100269.11;;;24.81;24.72
80629;BME280;69983;42.370;-71.210;2023-06-14T01:07:02;100273.11;;;24.29;24.90
80629;BME280;69983;42.370;-71.210;2023-06-14T01:09:05;100274.09;;;24.43;24.47
80629;BME280;69983;42.370;-71.210;2023-06-14T01:11:05;100277.44;;;23.94;24.83
80629;BME280;69983;42.370;-71.210;2023-06-14T01:13:07;100273.49;;;24.66;24.59
80629;BME280;69983;42.370;-71.210;2023-06-14T01:15:00;100273.98;;;24.94;24.42
80629;BME280;69983;42.370;-71.210;2023-06-14T01:17:02;100276.19;;;25.01;24.53
80629;BME280;69983;42.370;-71.210;2023-06-14T01:19:01;100278.11;;;25.01;24.51
80629;BME280;69983;42.370;-71.210;2023-06-14T01:21:01;100277.48;;;25.10;24.58
80629;BME280;69983;42.370;-71.210;2023-06-14T01:23:01;100277.67;;;25.22;24.60
80629;BME280;69983;42.370;-71.210;2023-06-14T01:25:02;100278.05;;;25.27;24.67
80629;BME280;69983;42.370;-71.210;2023-06-14T01:27:03;100274.50;;;25.51;24.33
80629;BME280;69983;42.370;-71.210;2023-06-14T01:29:04;100270.82;;;24.80;24.62
80629;BME280;69983;42.370;-71.210;2023-06-14T01:31:04;100270.94;;;24.76;24.39
80629;BME280;69983;42.370;-71.210;2023-06-14T01:33:05;100269.63;;;24.49;24.50
80629;BME280;69983;42.370;-71.210;2023-06-14T01:35:05;100268.85;;;24.93;24.65
80629;BME280;69983;42.370;-71.210;2023-06-14T01:37:05;100275.84;;;24.87;24.60
80629;BME280;69983;42.370;-71.210;2023-06-14T01:39:06;100278.86;;;25.34;24.53
80629;BME280;69983;42.370;-71.210;2023-06-14T01:41:06;100281.85;;;25.20;24.61
80629;BME280;69983;42.370;-71.210;2023-06-14T01:43:06;100276.44;;;24.96;24.71
80629;BME280;69983;42.370;-71.210;2023-06-14T01:45:08;100275.14;;;25.42;24.66
80629;BME280;69983;42.370;-71.210;2023-06-14T01:47:07;100277.43;;;25.08;24.63
80629;BME280;69983;42.370;-71.210;2023-06-14T01:49:08;100285.51;;;24.84;24.50
80629;BME280;69983;42.370;-71.210;2023-06-14T01:51:08;100286.16;;;24.53;24.42
80629;BME280;69983;42.370;-71.210;2023-06-14T01:53:10;100291.51;;;23.75;24.60
80629;BME280;69983;42.370;-71.210;2023-06-14T01:55:09;100291.99;;;24.48;24.37
80629;BME280;69983;42.370;-71.210;2023-06-14T01:57:09;100292.86;;;24.60;24.42
80629;BME280;69983;42.370;-71.210;2023-06-14T01:59:09;100289.78;;;25.17;24.28
80629;BME280;69983;42.370;-71.210;2023-06-14T02:01:10;100287.59;;;25.00;24.34
80629;BME280;69983;42.370;-71.210;2023-06-14T02:03:10;100289.39;;;25.03;24.43
80629;BME280;69983;42.370;-71.210;2023-06-14T02:05:11;100290.85;;;25.34;24.48
80629;BME280;69983;42.370;-71.210;2023-06-14T02:07:12;100291.82;;;25.23;24.54
80629;BME280;69983;42.370;-71.210;2023-06-14T02:09:12;100291.70;;;24.97;24.40
80629;BME280;69983;42.370;-71.210;2023-06-14T02:11:12;100294.70;;;24.50;24.50
80629;BME280;69983;42.370;-71.210;2023-06-14T02:13:12;100301.24;;;24.28;24.56
80629;BME280;69983;42.370;-71.210;2023-06-14T02:15:13;100298.12;;;23.85;24.92
80629;BME280;69983;42.370;-71.210;2023-06-14T02:17:14;100293.37;;;24.75;24.32
80629;BME280;69983;42.370;-71.210;2023-06-14T02:19:14;100289.12;;;25.09;24.19
80629;BME280;69983;42.370;-71.210;2023-06-14T02:21:14;100293.26;;;25.04;24.33
80629;BME280;69983;42.370;-71.210;2023-06-14T02:23:15;100293.06;;;25.07;24.22
80629;BME280;69983;42.370;-71.210;2023-06-14T02:25:15;100296.03;;;25.09;24.34
80629;BME280;69983;42.370;-71.210;2023-06-14T02:27:15;100294.21;;;25.04;24.48
80629;BME280;69983;42.370;-71.210;2023-06-14T02:29:15;100295.70;;;25.01;24.48
80629;BME280;69983;42.370;-71.210;2023-06-14T02:31:15;100291.86;;;24.42;24.27
80629;BME280;69983;42.370;-71.210;2023-06-14T02:33:16;100293.93;;;24.48;24.31
80629;BME280;69983;42.370;-71.210;2023-06-14T02:35:16;100305.06;;;24.37;24.74
80629;BME280;69983;42.370;-71.210;2023-06-14T02:37:17;100298.94;;;24.57;24.31
80629;BME280;69983;42.370;-71.210;2023-06-14T02:39:16;100299.08;;;25.04;24.29
80629;BME280;69983;42.370;-71.210;2023-06-14T02:41:17;100298.11;;;25.19;24.25
80629;BME280;69983;42.370;-71.210;2023-06-14T02:43:18;100303.96;;;25.33;24.27
80629;BME280;69983;42.370;-71.210;2023-06-14T02:45:18;100310.98;;;25.19;24.29
80629;BME280;69983;42.370;-71.210;2023-06-14T02:47:18;100309.29;;;25.33;24.48
80629;BME280;69983;42.370;-71.210;2023-06-14T02:49:19;100309.94;;;25.25;24.45
80629;BME280;69983;42.370;-71.210;2023-06-14T02:51:19;100306.74;;;25.35;24.43
80629;BME280;69983;42.370;-71.210;2023-06-14T02:53:19;100305.81;;;25.37;24.57
80629;BME280;69983;42.370;-71.210;2023-06-14T02:55:20;100310.48;;;25.22;24.49
80629;BME280;69983;42.370;-71.210;2023-06-14T02:57:21;100310.97;;;24.53;24.26
80629;BME280;69983;42.370;-71.210;2023-06-14T02:59:21;100310.21;;;24.86;24.12
80629;BME280;69983;42.370;-71.210;2023-06-14T03:01:22;100311.97;;;24.42;24.40
80629;BME280;69983;42.370;-71.210;2023-06-14T03:03:22;100310.70;;;25.17;24.26
80629;BME280;69983;42.370;-71.210;2023-06-14T03:05:23;100312.58;;;25.23;24.14
80629;BME280;69983;42.370;-71.210;2023-06-14T03:07:23;100313.17;;;25.18;24.12
80629;BME280;69983;42.370;-71.210;2023-06-14T03:09:24;100307.05;;;25.14;24.25
80629;BME280;69983;42.370;-71.210;2023-06-14T03:11:25;100303.66;;;25.58;24.17
80629;BME280;69983;42.370;-71.210;2023-06-14T03:13:25;100305.70;;;25.30;24.31
80629;BME280;69983;42.370;-71.210;2023-06-14T03:15:26;100308.08;;;25.11;24.34
80629;BME280;69983;42.370;-71.210;2023-06-14T03:17:26;100306.99;;;25.40;24.36
80629;BME280;69983;42.370;-71.210;2023-06-14T03:19:27;100301.89;;;25.46;24.39
80629;BME280;69983;42.370;-71.210;2023-06-14T03:21:27;100299.12;;;25.51;24.45
80629;BME280;69983;42.370;-71.210;2023-06-14T03:23:27;100299.19;;;25.17;24.68
80629;BME280;69983;42.370;-71.210;2023-06-14T03:25:28;100299.52;;;25.01;24.31
80629;BME280;69983;42.370;-71.210;2023-06-14T03:27:29;100299.16;;;24.99;24.14
80629;BME280;69983;42.370;-71.210;2023-06-14T03:29:29;100303.37;;;24.48;24.27
80629;BME280;69983;42.370;-71.210;2023-06-14T03:31:29;100304.95;;;24.25;24.21
80629;BME280;69983;42.370;-71.210;2023-06-14T03:33:30;100304.68;;;24.90;24.21
80629;BME280;69983;42.370;-71.210;2023-06-14T03:35:30;100307.62;;;25.11;24.15
80629;BME280;69983;42.370;-71.210;2023-06-14T03:37:31;100298.93;;;25.28;24.15
80629;BME280;69983;42.370;-71.210;2023-06-14T03:39:32;100297.28;;;25.24;24.26
80629;BME280;69983;42.370;-71.210;2023-06-14T03:41:32;100295.82;;;25.24;24.15
80629;BME280;69983;42.370;-71.210;2023-06-14T03:43:32;100291.05;;;25.27;24.20
80629;BME280;69983;42.370;-71.210;2023-06-14T03:45:33;100283.25;;;24.03;24.16
80629;BME280;69983;42.370;-71.210;2023-06-14T03:47:34;100279.77;;;24.40;23.58
80629;BME280;69983;42.370;-71.210;2023-06-14T03:49:34;100277.34;;;24.33;23.34
80629;BME280;69983;42.370;-71.210;2023-06-14T03:51:33;100275.14;;;24.61;23.17
80629;BME280;69983;42.370;-71.210;2023-06-14T03:53:34;100272.77;;;24.46;23.03
80629;BME280;69983;42.370;-71.210;2023-06-14T03:55:35;100271.21;;;26.02;22.55
80629;BME280;69983;42.370;-71.210;2023-06-14T03:57:35;100271.80;;;25.66;23.11
80629;BME280;69983;42.370;-71.210;2023-06-14T03:59:36;100273.12;;;25.18;23.51
80629;BME280;69983;42.370;-71.210;2023-06-14T04:01:37;100270.09;;;25.00;23.82
80629;BME280;69983;42.370;-71.210;2023-06-14T04:03:37;100270.06;;;24.99;23.72
80629;BME280;69983;42.370;-71.210;2023-06-14T04:05:37;100270.95;;;25.63;23.74
80629;BME280;69983;42.370;-71.210;2023-06-14T04:07:38;100267.30;;;25.28;23.94
80629;BME280;69983;42.370;-71.210;2023-06-14T04:09:39;100265.34;;;25.45;23.89
80629;BME280;69983;42.370;-71.210;2023-06-14T04:11:39;100265.37;;;25.27;24.13
80629;BME280;69983;42.370;-71.210;2023-06-14T04:13:40;100262.60;;;25.52;24.23
80629;BME280;69983;42.370;-71.210;2023-06-14T04:15:40;100264.87;;;25.12;24.10
80629;BME280;69983;42.370;-71.210;2023-06-14T04:17:40;100260.91;;;24.95;24.06
80629;BME280;69983;42.370;-71.210;2023-06-14T04:19:40;100260.28;;;24.55;23.87
80629;BME280;69983;42.370;-71.210;2023-06-14T04:21:41;100261.37;;;24.25;23.92
80629;BME280;69983;42.370;-71.210;2023-06-14T04:23:41;100260.88;;;24.69;24.13
80629;BME280;69983;42.370;-71.210;2023-06-14T04:25:42;100260.39;;;24.77;23.96
80629;BME280;69983;42.370;-71.210;2023-06-14T04:27:42;100261.12;;;25.04;24.04
80629;BME280;69983;42.370;-71.210;2023-06-14T04:29:42;100255.89;;;24.97;24.04
80629;BME280;69983;42.370;-71.210;2023-06-14T04:31:43;100247.39;;;24.97;24.15
80629;BME280;69983;42.370;-71.210;2023-06-14T04:33:43;100241.57;;;24.82;24.17
80629;BME280;69983;42.370;-71.210;2023-06-14T04:35:44;100238.93;;;25.22;24.16
80629;BME280;69983;42.370;-71.210;2023-06-14T04:37:45;100232.57;;;24.94;24.31
80629;BME280;69983;42.370;-71.210;2023-06-14T04:39:45;100228.64;;;24.88;23.86
80629;BME280;69983;42.370;-71.210;2023-06-14T04:41:45;100226.15;;;24.84;23.98
80629;BME280;69983;42.370;-71.210;2023-06-14T04:43:46;100225.33;;;24.22;24.14
80629;BME280;69983;42.370;-71.210;2023-06-14T04:45:46;100221.68;;;24.65;24.19
80629;BME280;69983;42.370;-71.210;2023-06-14T04:47:47;100222.81;;;24.80;24.00
80629;BME280;69983;42.370;-71.210;2023-06-14T04:49:47;100218.42;;;24.98;24.15
80629;BME280;69983;42.370;-71.210;2023-06-14T04:51:47;100219.80;;;25.52;23.91
80629;BME280;69983;42.370;-71.210;2023-06-14T04:53:48;100223.58;;;25.29;24.01
80629;BME280;69983;42.370;-71.210;2023-06-14T04:55:48;100223.25;;;25.89;23.85
80629;BME280;69983;42.370;-71.210;2023-06-14T04:57:49;100221.31;;;25.68;23.93
80629;BME280;69983;42.370;-71.210;2023-06-14T04:59:49;100224.85;;;25.58;24.17
80629;BME280;69983;42.370;-71.210;2023-06-14T05:01:49;100227.10;;;25.39;23.81
80629;BME280;69983;42.370;-71.210;2023-06-14T05:03:49;100224.93;;;25.34;23.76
80629;BME280;69983;42.370;-71.210;2023-06-14T05:05:49;100222.00;;;24.38;24.03
80629;BME280;69983;42.370;-71.210;2023-06-14T05:07:49;100221.69;;;24.47;23.93
80629;BME280;69983;42.370;-71.210;2023-06-14T05:09:50;100221.33;;;25.01;23.78
80629;BME280;69983;42.370;-71.210;2023-06-14T05:11:52;100224.06;;;25.19;23.76
80629;BME280;69983;42.370;-71.210;2023-06-14T05:13:52;100224.13;;;25.50;23.80
80629;BME280;69983;42.370;-71.210;2023-06-14T05:15:53;100223.32;;;25.41;23.81
80629;BME280;69983;42.370;-71.210;2023-06-14T05:17:54;100224.40;;;25.54;23.80
80629;BME280;69983;42.370;-71.210;2023-06-14T05:19:54;100226.79;;;25.53;23.87
80629;BME280;69983;42.370;-71.210;2023-06-14T05:21:54;100231.80;;;25.39;23.90
80629;BME280;69983;42.370;-71.210;2023-06-14T05:23:54;100239.49;;;25.72;23.93
80629;BME280;69983;42.370;-71.210;2023-06-14T05:25:54;100237.45;;;25.19;23.95
80629;BME280;69983;42.370;-71.210;2023-06-14T05:27:55;100235.63;;;25.30;23.90
80629;BME280;69983;42.370;-71.210;2023-06-14T05:29:54;100231.95;;;25.77;23.91
80629;BME280;69983;42.370;-71.210;2023-06-14T05:31:55;100227.06;;;23.85;23.62
80629;BME280;69983;42.370;-71.210;2023-06-14T05:33:56;100221.59;;;24.69;23.22
80629;BME280;69983;42.370;-71.210;2023-06-14T05:35:56;100219.55;;;25.00;22.76
80629;BME280;69983;42.370;-71.210;2023-06-14T05:37:57;100223.53;;;25.10;22.24
80629;BME280;69983;42.370;-71.210;2023-06-14T05:39:57;100225.54;;;24.80;22.18
80629;BME280;69983;42.370;-71.210;2023-06-14T05:41:58;100225.82;;;25.82;22.61
80629;BME280;69983;42.370;-71.210;2023-06-14T05:43:59;100223.93;;;25.74;23.01
80629;BME280;69983;42.370;-71.210;2023-06-14T05:45:59;100226.01;;;25.71;23.32
80629;BME280;69983;42.370;-71.210;2023-06-14T05:47:59;100230.07;;;25.55;23.57
80629;BME280;69983;42.370;-71.210;2023-06-14T05:50:00;100227.17;;;25.63;23.65
80629;BME280;69983;42.370;-71.210;2023-06-14T05:52:00;100226.79;;;25.84;23.78
80629;BME280;69983;42.370;-71.210;2023-06-14T05:54:00;100228.19;;;25.66;23.81
80629;BME280;69983;42.370;-71.210;2023-06-14T05:56:01;100228.98;;;25.34;23.92
80629;BME280;69983;42.370;-71.210;2023-06-14T05:58:01;100234.53;;;25.53;24.02
80629;BME280;69983;42.370;-71.210;2023-06-14T06:00:01;100230.30;;;25.49;23.92
80629;BME280;69983;42.370;-71.210;2023-06-14T06:02:02;100228.15;;;26.00;23.88
80629;BME280;69983;42.370;-71.210;2023-06-14T06:04:02;100229.37;;;25.60;23.84
80629;BME280;69983;42.370;-71.210;2023-06-14T06:06:02;100228.34;;;25.68;23.77
80629;BME280;69983;42.370;-71.210;2023-06-14T06:08:03;100225.21;;;24.91;24.00
80629;BME280;69983;42.370;-71.210;2023-06-14T06:10:04;100224.43;;;24.63;24.58
80629;BME280;69983;42.370;-71.210;2023-06-14T06:12:06;100227.99;;;24.45;24.35
80629;BME280;69983;42.370;-71.210;2023-06-14T06:14:05;100234.46;;;24.26;27.56
80629;BME280;69983;42.370;-71.210;2023-06-14T06:16:06;100231.31;;;24.14;28.87
80629;BME280;69983;42.370;-71.210;2023-06-14T06:18:06;100229.69;;;24.15;28.76
80629;BME280;69983;42.370;-71.210;2023-06-14T06:20:07;100230.25;;;24.38;29.15
80629;BME280;69983;42.370;-71.210;2023-06-14T06:22:06;100231.99;;;23.74;30.47
80629;BME280;69983;42.370;-71.210;2023-06-14T06:24:07;100231.31;;;24.13;30.92
80629;BME280;69983;42.370;-71.210;2023-06-14T06:26:07;100230.03;;;24.35;31.33
80629;BME280;69983;42.370;-71.210;2023-06-14T06:28:08;100229.13;;;24.42;31.05
80629;BME280;69983;42.370;-71.210;2023-06-14T06:30:09;100228.29;;;23.76;32.22
80629;BME280;69983;42.370;-71.210;2023-06-14T06:32:09;100228.65;;;23.64;31.50
80629;BME280;69983;42.370;-71.210;2023-06-14T06:34:10;100231.87;;;23.49;32.53
80629;BME280;69983;42.370;-71.210;2023-06-14T06:36:10;100236.20;;;22.67;32.43
80629;BME280;69983;42.370;-71.210;2023-06-14T06:38:11;100237.39;;;22.72;32.83
80629;BME280;69983;42.370;-71.210;2023-06-14T06:40:11;100239.45;;;23.47;33.11
80629;BME280;69983;42.370;-71.210;2023-06-14T06:42:12;100240.97;;;23.09;33.40
80629;BME280;69983;42.370;-71.210;2023-06-14T06:44:11;100242.92;;;23.72;33.94
80629;BME280;69983;42.370;-71.210;2023-06-14T06:46:12;100243.00;;;23.84;33.88
80629;BME280;69983;42.370;-71.210;2023-06-14T06:48:12;100243.73;;;23.55;34.66
80629;BME280;69983;42.370;-71.210;2023-06-14T06:50:12;100246.50;;;23.28;34.36
80629;BME280;69983;42.370;-71.210;2023-06-14T06:52:12;100247.59;;;22.99;32.90
80629;BME280;69983;42.370;-71.210;2023-06-14T06:54:12;100245.61;;;22.87;33.17
80629;BME280;69983;42.370;-71.210;2023-06-14T06:56:13;100249.02;;;22.91;33.77
80629;BME280;69983;42.370;-71.210;2023-06-14T06:58:14;100250.73;;;22.80;35.36
80629;BME280;69983;42.370;-71.210;2023-06-14T07:00:14;100257.19;;;23.03;36.07
80629;BME280;69983;42.370;-71.210;2023-06-14T07:02:14;100255.05;;;22.85;35.64
80629;BME280;69983;42.370;-71.210;2023-06-14T07:04:14;100250.25;;;23.22;35.53
80629;BME280;69983;42.370;-71.210;2023-06-14T07:06:15;100246.35;;;23.74;35.27
80629;BME280;69983;42.370;-71.210;2023-06-14T07:08:16;100242.13;;;23.44;35.39
80629;BME280;69983;42.370;-71.210;2023-06-14T07:10:16;100240.60;;;22.90;35.41
80629;BME280;69983;42.370;-71.210;2023-06-14T07:12:17;100235.93;;;22.50;36.20
80629;BME280;69983;42.370;-71.210;2023-06-14T07:14:17;100242.14;;;22.51;36.69
80629;BME280;69983;42.370;-71.210;2023-06-14T07:16:17;100240.88;;;22.22;36.94
80629;BME280;69983;42.370;-71.210;2023-06-14T07:18:18;100234.57;;;22.45;36.22
80629;BME280;69983;42.370;-71.210;2023-06-14T07:20:18;100225.61;;;22.94;35.45
80629;BME280;69983;42.370;-71.210;2023-06-14T07:22:18;100228.01;;;23.29;34.02
80629;BME280;69983;42.370;-71.210;2023-06-14T07:24:18;100225.66;;;23.45;32.87
80629;BME280;69983;42.370;-71.210;2023-06-14T07:26:19;100228.25;;;23.95;31.91
80629;BME280;69983;42.370;-71.210;2023-06-14T07:28:19;100224.25;;;23.94;31.13
80629;BME280;69983;42.370;-71.210;2023-06-14T07:30:20;100224.89;;;24.17;30.59
80629;BME280;69983;42.370;-71.210;2023-06-14T07:32:19;100224.10;;;24.35;29.21
80629;BME280;69983;42.370;-71.210;2023-06-14T07:34:19;100229.64;;;23.80;28.84
80629;BME280;69983;42.370;-71.210;2023-06-14T07:36:20;100225.29;;;23.70;28.13
80629;BME280;69983;42.370;-71.210;2023-06-14T07:38:21;100223.21;;;23.59;28.19
80629;BME280;69983;42.370;-71.210;2023-06-14T07:40:21;100216.85;;;24.22;28.15
80629;BME280;69983;42.370;-71.210;2023-06-14T07:42:20;100211.39;;;23.95;27.98
80629;BME280;69983;42.370;-71.210;2023-06-14T07:44:21;100207.35;;;24.09;27.90
80629;BME280;69983;42.370;-71.210;2023-06-14T07:46:22;100202.76;;;23.89;27.91
80629;BME280;69983;42.370;-71.210;2023-06-14T07:48:22;100204.42;;;24.02;27.73
80629;BME280;69983;42.370;-71.210;2023-06-14T07:50:22;100203.70;;;24.04;27.66
80629;BME280;69983;42.370;-71.210;2023-06-14T07:52:23;100202.34;;;23.96;27.65
80629;BME280;69983;42.370;-71.210;2023-06-14T07:54:23;100197.50;;;23.92;27.25
80629;BME280;69983;42.370;-71.210;2023-06-14T07:56:24;100201.56;;;23.49;26.96
80629;BME280;69983;42.370;-71.210;2023-06-14T07:58:25;100201.48;;;23.38;26.60
80629;BME280;69983;42.370;-71.210;2023-06-14T08:00:26;100197.80;;;23.21;26.39
80629;BME280;69983;42.370;-71.210;2023-06-14T08:02:26;100202.28;;;23.22;26.77
80629;BME280;69983;42.370;-71.210;2023-06-14T08:04:27;100204.76;;;23.58;26.73
80629;BME280;69983;42.370;-71.210;2023-06-14T08:06:28;100210.10;;;23.44;26.72
80629;BME280;69983;42.370;-71.210;2023-06-14T08:08:28;100218.48;;;23.54;26.67
80629;BME280;69983;42.370;-71.210;2023-06-14T08:10:27;100221.89;;;23.85;26.49
80629;BME280;69983;42.370;-71.210;2023-06-14T08:12:28;100227.27;;;23.70;26.66
80629;BME280;69983;42.370;-71.210;2023-06-14T08:14:29;100225.16;;;23.80;26.62
80629;BME280;69983;42.370;-71.210;2023-06-14T08:16:30;100219.44;;;23.94;26.57
80629;BME280;69983;42.370;-71.210;2023-06-14T08:18:30;100220.63;;;23.81;26.70
80629;BME280;69983;42.370;-71.210;2023-06-14T08:20:30;100223.72;;;23.97;26.60
80629;BME280;69983;42.370;-71.210;2023-06-14T08:22:30;100231.16;;;23.82;26.27
80629;BME280;69983;42.370;-71.210;2023-06-14T08:24:30;100231.14;;;23.63;26.17
80629;BME280;69983;42.370;-71.210;2023-06-14T08:26:30;100226.69;;;23.51;25.81
80629;BME280;69983;42.370;-71.210;2023-06-14T08:28:31;100224.83;;;23.26;26.10
80629;BME280;69983;42.370;-71.210;2023-06-14T08:30:31;100220.16;;;23.54;26.13
80629;BME280;69983;42.370;-71.210;2023-06-14T08:32:31;100214.23;;;23.37;26.18
80629;BME280;69983;42.370;-71.210;2023-06-14T08:34:31;100212.59;;;23.91;26.20
80629;BME280;69983;42.370;-71.210;2023-06-14T08:36:31;100213.74;;;23.64;26.29
80629;BME280;69983;42.370;-71.210;2023-06-14T08:38:31;100218.92;;;23.58;26.24
80629;BME280;69983;42.370;-71.210;2023-06-14T08:40:31;100219.34;;;23.65;26.25
80629;BME280;69983;42.370;-71.210;2023-06-14T08:42:33;100218.84;;;23.80;26.20
80629;BME280;69983;42.370;-71.210;2023-06-14T08:44:31;100220.62;;;23.83;25.85
80629;BME280;69983;42.370;-71.210;2023-06-14T08:46:33;100217.07;;;23.85;25.62
80629;BME280;69983;42.370;-71.210;2023-06-14T08:48:32;100212.61;;;23.55;25.52
80629;BME280;69983;42.370;-71.210;2023-06-14T08:50:32;100208.47;;;23.38;25.63
80629;BME280;69983;42.370;-71.210;2023-06-14T08:52:35;100206.25;;;23.23;25.92
80629;BME280;69983;42.370;-71.210;2023-06-14T08:54:32;100208.76;;;23.52;25.76
80629;BME280;69983;42.370;-71.210;2023-06-14T08:56:32;100210.12;;;23.13;25.97
80629;BME280;69983;42.370;-71.210;2023-06-14T08:58:32;100207.14;;;23.40;26.04
80629;BME280;69983;42.370;-71.210;2023-06-14T09:00:32;100204.64;;;23.50;25.88
80629;BME280;69983;42.370;-71.210;2023-06-14T09:02:32;100207.38;;;23.80;25.89
80629;BME280;69983;42.370;-71.210;2023-06-14T09:04:32;100207.31;;;23.63;25.90
80629;BME280;69983;42.370;-71.210;2023-06-14T09:06:32;100206.64;;;23.60;26.12
80629;BME280;69983;42.370;-71.210;2023-06-14T09:08:32;100205.45;;;23.95;25.37
80629;BME280;69983;42.370;-71.210;2023-06-14T09:10:33;100205.69;;;23.40;25.42
80629;BME280;69983;42.370;-71.210;2023-06-14T09:12:33;100200.73;;;23.24;25.17
80629;BME280;69983;42.370;-71.210;2023-06-14T09:14:34;100196.57;;;22.94;25.89
80629;BME280;69983;42.370;-71.210;2023-06-14T09:16:33;100193.10;;;23.42;25.79
80629;BME280;69983;42.370;-71.210;2023-06-14T09:18:35;100192.39;;;23.68;25.68
80629;BME280;69983;42.370;-71.210;2023-06-14T09:20:33;100195.31;;;23.67;25.59
80629;BME280;69983;42.370;-71.210;2023-06-14T09:22:33;100193.93;;;23.65;25.69
80629;BME280;69983;42.370;-71.210;2023-06-14T09:24:33;100193.02;;;23.33;25.84
80629;BME280;69983;42.370;-71.210;2023-06-14T09:26:33;100193.09;;;23.47;25.79
80629;BME280;69983;42.370;-71.210;2023-06-14T09:28:34;100193.94;;;23.79;25.79
80629;BME280;69983;42.370;-71.210;2023-06-14T09:30:34;100190.41;;;23.02;25.97
80629;BME280;69983;42.370;-71.210;2023-06-14T09:32:37;100185.76;;;23.73;25.42
80629;BME280;69983;42.370;-71.210;2023-06-14T09:34:35;100184.61;;;23.36;25.27
80629;BME280;69983;42.370;-71.210;2023-06-14T09:36:34;100180.89;;;23.34;25.14
80629;BME280;69983;42.370;-71.210;2023-06-14T09:38:35;100180.32;;;23.48;25.43
80629;BME280;69983;42.370;-71.210;2023-06-14T09:40:36;100181.44;;;23.05;25.43
80629;BME280;69983;42.370;-71.210;2023-06-14T09:42:34;100179.41;;;23.55;25.51
80629;BME280;69983;42.370;-71.210;2023-06-14T09:44:34;100182.15;;;23.39;25.56
80629;BME280;69983;42.370;-71.210;2023-06-14T09:46:35;100186.36;;;23.36;25.69
80629;BME280;69983;42.370;-71.210;2023-06-14T09:48:34;100190.11;;;23.35;25.76
80629;BME280;69983;42.370;-71.210;2023-06-14T09:50:35;100192.81;;;23.46;25.74
80629;BME280;69983;42.370;-71.210;2023-06-14T09:52:35;100194.36;;;23.62;25.70
80629;BME280;69983;42.370;-71.210;2023-06-14T09:54:37;100193.85;;;23.49;25.68
80629;BME280;69983;42.370;-71.210;2023-06-14T09:56:37;100195.66;;;23.65;25.80
80629;BME280;69983;42.370;-71.210;2023-06-14T09:58:37;100198.91;;;23.53;25.74
80629;BME280;69983;42.370;-71.210;2023-06-14T10:00:36;100200.12;;;23.48;25.85
80629;BME280;69983;42.370;-71.210;2023-06-14T10:02:37;100204.18;;;23.63;25.78
80629;BME280;69983;42.370;-71.210;2023-06-14T10:04:35;100205.69;;;23.96;25.75
80629;BME280;69983;42.370;-71.210;2023-06-14T10:06:37;100210.02;;;23.82;25.73
80629;BME280;69983;42.370;-71.210;2023-06-14T10:08:36;100213.92;;;23.75;25.84
80629;BME280;69983;42.370;-71.210;2023-06-14T10:10:38;100210.28;;;23.86;25.40
80629;BME280;69983;42.370;-71.210;2023-06-14T10:12:36;100210.37;;;23.44;25.49